Time;durP1;ratioP1;P1;durP2;ratioP2;P2;SDS_P1;SDS_P2;PMS_P1;PMS_P2;Temp;Humidity;BMP_temperature;BMP_pressure;BME280_temperature;BME280_humidity;BME280_pressure;Samples;Min_cycle;Max_cycle;Signal;HPM_P1;HPM_P2
2023/03/15 00:01:59;;;;;;;6.77;6.43;;;2.80;99.90;;;;;;5014975;28;20211;-65
2023/03/15 00:04:26;;;;;;;7.47;6.90;;;2.80;99.90;;;;;;5014675;28;20192;-65
2023/03/15 00:06:52;;;;;;;8.27;7.57;;;2.80;99.90;;;;;;5014978;28;20176;-65
2023/03/15 00:09:18;;;;;;;7.87;7.27;;;2.90;99.90;;;;;;5014635;28;20180;-64
2023/03/15 00:11:44;;;;;;;7.07;6.67;;;2.90;99.90;;;;;;5014874;28;20286;-65
2023/03/15 00:14:10;;;;;;;6.60;6.20;;;3.00;99.90;;;;;;5014760;28;20717;-64
2023/03/15 00:16:35;;;;;;;9.67;7.07;;;3.00;99.90;;;;;;5014462;28;20180;-64
2023/03/15 00:19:01;;;;;;;7.20;6.50;;;3.10;99.90;;;;;;5014842;28;20546;-65
2023/03/15 00:21:28;;;;;;;8.13;7.53;;;3.10;99.90;;;;;;5014207;28;20232;-65
2023/03/15 00:23:55;;;;;;;7.60;7.00;;;3.20;99.90;;;;;;5014336;28;20271;-65
2023/03/15 00:26:20;;;;;;;8.07;7.00;;;3.30;99.90;;;;;;5014494;28;20176;-65
2023/03/15 00:28:46;;;;;;;7.77;7.17;;;3.40;99.90;;;;;;5014342;28;20199;-65
2023/03/15 00:31:23;;;;;;;8.63;7.90;;;3.40;99.90;;;;;;5013731;28;20224;-65
2023/03/15 00:33:52;;;;;;;7.80;7.30;;;3.50;99.90;;;;;;5014537;28;20176;-64
2023/03/15 00:36:22;;;;;;;10.03;9.13;;;3.50;99.90;;;;;;5014111;28;20203;-64
2023/03/15 00:38:48;;;;;;;7.70;7.10;;;3.60;99.90;;;;;;5014261;28;20168;-65
2023/03/15 00:41:16;;;;;;;10.43;7.83;;;3.60;99.90;;;;;;5013501;28;20204;-65
2023/03/15 00:43:42;;;;;;;9.47;8.73;;;3.60;99.90;;;;;;5013901;28;20226;-65
2023/03/15 00:46:08;;;;;;;8.37;7.57;;;3.60;99.90;;;;;;5014012;28;20185;-63
2023/03/15 00:48:36;;;;;;;9.23;8.53;;;3.70;99.90;;;;;;5014210;28;20180;-65
2023/03/15 00:51:08;;;;;;;9.07;8.57;;;3.70;99.90;;;;;;5013535;28;20292;-65
2023/03/15 00:53:35;;;;;;;11.67;8.77;;;3.70;99.90;;;;;;5014230;28;20590;-65
2023/03/15 00:56:09;;;;;;;9.77;9.17;;;3.70;99.90;;;;;;5013843;28;20172;-65
2023/03/15 00:58:35;;;;;;;12.03;10.80;;;3.60;99.90;;;;;;5012767;28;20262;-65
2023/03/15 01:01:06;;;;;;;10.43;9.83;;;3.60;99.90;;;;;;5013185;28;20634;-65
2023/03/15 01:03:31;;;;;;;9.47;8.77;;;3.60;99.90;;;;;;5014312;28;20176;-65
2023/03/15 01:05:57;;;;;;;9.53;8.73;;;3.60;99.90;;;;;;5013918;28;20533;-65
2023/03/15 01:08:23;;;;;;;12.00;11.27;;;3.50;99.90;;;;;;5013730;28;20183;-65
2023/03/15 01:10:49;;;;;;;11.50;9.87;;;3.50;99.90;;;;;;5013122;28;20265;-64
2023/03/15 01:13:14;;;;;;;9.57;8.90;;;3.50;99.90;;;;;;5012717;28;20634;-65
2023/03/15 01:15:44;;;;;;;9.10;8.60;;;3.50;99.90;;;;;;5013450;28;20219;-65
2023/03/15 01:18:10;;;;;;;10.27;9.57;;;3.50;99.90;;;;;;5013602;28;20219;-65
2023/03/15 01:20:35;;;;;;;9.30;8.50;;;3.60;99.90;;;;;;5012920;28;20191;-65
2023/03/15 01:23:01;;;;;;;8.30;7.73;;;3.60;99.90;;;;;;5013732;28;20324;-65
2023/03/15 01:25:27;;;;;;;9.07;8.37;;;3.60;99.90;;;;;;5013792;28;20183;-65
2023/03/15 01:27:52;;;;;;;10.63;10.00;;;3.60;99.90;;;;;;5013187;28;20267;-65
2023/03/15 01:30:18;;;;;;;8.97;8.47;;;3.50;99.90;;;;;;5012879;28;20286;-65
2023/03/15 01:32:43;;;;;;;10.30;9.70;;;3.50;99.90;;;;;;5011908;28;20215;-65
2023/03/15 01:35:09;;;;;;;9.43;8.57;;;3.40;99.90;;;;;;5013309;28;20526;-65
2023/03/15 01:37:35;;;;;;;9.50;9.10;;;3.40;99.90;;;;;;5013055;28;20180;-64
2023/03/15 01:40:01;;;;;;;6.20;5.90;;;3.20;99.90;;;;;;5012898;28;20195;-65
2023/03/15 01:42:26;;;;;;;8.10;7.80;;;3.10;99.90;;;;;;5011791;28;20558;-65
2023/03/15 01:44:53;;;;;;;7.17;6.87;;;3.00;99.90;;;;;;5013037;28;20634;-65
2023/03/15 01:47:20;;;;;;;6.30;6.00;;;2.90;99.90;;;;;;5013348;28;20172;-63
2023/03/15 01:49:52;;;;;;;6.70;6.30;;;2.80;99.90;;;;;;5011493;28;20231;-64
2023/03/15 01:52:22;;;;;;;8.67;7.27;;;2.80;99.90;;;;;;5012397;28;20211;-65
2023/03/15 01:55:00;;;;;;;6.00;5.70;;;2.70;99.90;;;;;;5013063;28;20226;-65
2023/03/15 01:57:50;;;;;;;6.70;6.40;;;2.60;99.90;;;;;;5012733;28;20180;-65
2023/03/15 02:00:19;;;;;;;7.23;6.57;;;2.60;99.90;;;;;;5007643;28;20189;-64
2023/03/15 02:02:51;;;;;;;6.37;6.07;;;2.60;99.90;;;;;;5012565;28;20195;-65
2023/03/15 02:05:24;;;;;;;7.67;7.17;;;2.50;99.90;;;;;;5012856;28;20259;-65
2023/03/15 02:07:53;;;;;;;9.40;7.57;;;2.50;99.90;;;;;;5011181;28;20531;-65
2023/03/15 02:10:42;;;;;;;7.47;6.87;;;2.50;99.90;;;;;;5010503;28;20677;-65
2023/03/15 02:13:10;;;;;;;6.20;5.90;;;2.40;99.90;;;;;;5013093;28;20176;-65
2023/03/15 02:15:35;;;;;;;7.83;7.33;;;2.30;99.90;;;;;;5012268;28;20262;-65
2023/03/15 02:18:01;;;;;;;8.63;8.03;;;2.10;99.90;;;;;;5012017;28;20247;-65
2023/03/15 02:20:34;;;;;;;7.97;7.37;;;1.90;99.90;;;;;;5012131;28;20195;-65
2023/03/15 02:23:06;;;;;;;8.13;7.63;;;1.90;99.90;;;;;;5012184;28;20605;-65
2023/03/15 02:26:08;;;;;;;8.53;8.03;;;1.70;99.90;;;;;;5012528;28;20263;-65
2023/03/15 02:28:34;;;;;;;8.73;8.23;;;1.70;99.90;;;;;;5012025;28;20314;-65
2023/03/15 02:31:00;;;;;;;8.43;7.90;;;1.60;99.90;;;;;;5010560;28;20204;-66
2023/03/15 02:33:46;;;;;;;8.57;8.07;;;1.50;99.90;;;;;;5012266;28;20202;-67
2023/03/15 02:36:26;;;;;;;9.40;8.50;;;1.50;99.90;;;;;;5010827;28;20180;-68
2023/03/15 02:38:52;;;;;;;10.07;9.30;;;1.40;99.90;;;;;;5011260;28;20665;-67
2023/03/15 02:41:38;;;;;;;9.13;8.53;;;1.40;99.90;;;;;;5011835;28;20701;-68
2023/03/15 02:44:21;;;;;;;9.07;8.27;;;1.40;99.90;;;;;;5012275;28;20641;-65
2023/03/15 02:46:51;;;;;;;8.50;8.10;;;1.40;99.90;;;;;;5012280;28;20649;-67
2023/03/15 02:49:20;;;;;;;8.67;7.97;;;1.40;99.90;;;;;;5011919;28;20518;-67
2023/03/15 02:51:45;;;;;;;7.00;6.67;;;1.50;99.90;;;;;;5011643;28;20222;-65
2023/03/15 02:54:11;;;;;;;7.63;7.23;;;1.50;99.90;;;;;;5012002;28;20172;-65
2023/03/15 02:56:37;;;;;;;7.77;7.37;;;1.50;99.90;;;;;;5011715;28;20609;-65
2023/03/15 02:59:02;;;;;;;7.43;6.93;;;1.60;99.90;;;;;;5011915;28;20642;-65
2023/03/15 03:01:28;;;;;;;7.77;7.37;;;1.60;99.90;;;;;;5011500;28;20199;-65
2023/03/15 03:03:53;;;;;;;8.47;8.07;;;1.70;99.90;;;;;;5011928;28;20184;-65
2023/03/15 03:06:19;;;;;;;9.13;8.53;;;1.70;99.90;;;;;;5011548;28;20204;-65
2023/03/15 03:08:45;;;;;;;8.53;7.83;;;1.80;99.90;;;;;;5011881;28;20180;-65
2023/03/15 03:11:13;;;;;;;8.13;7.73;;;1.80;99.90;;;;;;5011160;28;20230;-65
2023/03/15 03:13:39;;;;;;;8.53;8.03;;;1.80;99.90;;;;;;5011608;28;20172;-66
2023/03/15 03:16:05;;;;;;;9.17;8.67;;;1.90;99.90;;;;;;5011779;28;20174;-65
2023/03/15 03:18:34;;;;;;;8.03;7.53;;;1.90;99.90;;;;;;5011507;28;20604;-65
2023/03/15 03:21:02;;;;;;;8.80;8.27;;;1.90;99.90;;;;;;5011328;28;20191;-65
2023/03/15 03:23:30;;;;;;;10.00;9.50;;;1.80;99.90;;;;;;5011618;28;20291;-65
2023/03/15 03:25:57;;;;;;;8.80;8.40;;;1.90;99.90;;;;;;5011722;28;20263;-65
2023/03/15 03:28:25;;;;;;;8.00;7.70;;;1.90;99.90;;;;;;5012272;28;20242;-65
2023/03/15 03:30:54;;;;;;;7.77;7.37;;;1.90;99.90;;;;;;5015253;28;20210;-65
2023/03/15 03:33:20;;;;;;;7.13;6.70;;;1.90;99.90;;;;;;5015435;28;20188;-65
2023/03/15 03:35:46;;;;;;;8.43;7.97;;;2.00;99.90;;;;;;5015446;28;20179;-66
2023/03/15 03:38:12;;;;;;;7.43;7.03;;;2.00;99.90;;;;;;5015658;28;20168;-65
2023/03/15 03:40:38;;;;;;;7.67;7.03;;;2.00;99.90;;;;;;5015035;28;20187;-65
2023/03/15 03:43:03;;;;;;;6.73;6.43;;;2.10;99.90;;;;;;5015028;28;20180;-66
2023/03/15 03:45:29;;;;;;;6.50;6.20;;;2.10;99.90;;;;;;5015257;28;20183;-68
2023/03/15 03:47:55;;;;;;;7.30;7.00;;;2.10;99.90;;;;;;5015334;28;20661;-66
2023/03/15 03:50:20;;;;;;;6.47;6.17;;;2.10;99.90;;;;;;5014428;28;20244;-65
2023/03/15 03:52:46;;;;;;;7.13;6.73;;;2.10;99.90;;;;;;5015234;28;20191;-66
2023/03/15 03:55:12;;;;;;;6.50;6.20;;;2.10;99.90;;;;;;5014884;28;20200;-66
2023/03/15 03:57:42;;;;;;;6.60;6.17;;;2.10;99.90;;;;;;5015360;28;20170;-68
2023/03/15 04:00:10;;;;;;;7.07;6.77;;;2.00;99.90;;;;;;5014535;28;20227;-65
2023/03/15 04:02:36;;;;;;;6.57;6.27;;;2.00;99.90;;;;;;5014848;28;20697;-65
2023/03/15 04:05:02;;;;;;;7.87;7.43;;;2.10;99.90;;;;;;5014914;28;20207;-66
2023/03/15 04:07:28;;;;;;;7.20;6.80;;;2.00;99.90;;;;;;5014759;28;20565;-66
2023/03/15 04:09:54;;;;;;;6.70;6.30;;;2.00;99.90;;;;;;5014549;28;20172;-66
2023/03/15 04:12:19;;;;;;;7.03;6.63;;;2.00;99.90;;;;;;5014432;28;20219;-65
2023/03/15 04:14:45;;;;;;;7.20;6.87;;;2.00;99.90;;;;;;5014980;28;20255;-66
2023/03/15 04:17:11;;;;;;;7.77;7.27;;;2.00;99.90;;;;;;5014672;28;20183;-66
2023/03/15 04:19:36;;;;;;;7.30;6.90;;;1.90;99.90;;;;;;5014717;28;20172;-66
2023/03/15 04:22:09;;;;;;;7.47;7.17;;;1.80;99.90;;;;;;5014312;28;20208;-65
2023/03/15 04:24:35;;;;;;;7.60;7.10;;;1.70;99.90;;;;;;5014556;28;20646;-66
2023/03/15 04:27:01;;;;;;;7.00;6.60;;;1.60;99.90;;;;;;5014317;28;20191;-66
2023/03/15 04:29:28;;;;;;;8.40;7.80;;;1.40;99.90;;;;;;5014316;28;20661;-66
2023/03/15 04:32:00;;;;;;;8.07;7.63;;;1.30;99.90;;;;;;5014013;28;20685;-65
2023/03/15 04:34:27;;;;;;;8.27;7.67;;;1.30;99.90;;;;;;5013233;28;20550;-66
2023/03/15 04:36:53;;;;;;;8.33;7.83;;;1.20;99.90;;;;;;5012285;28;20191;-66
2023/03/15 04:39:19;;;;;;;7.93;7.53;;;1.20;99.90;;;;;;5013309;28;20180;-67
2023/03/15 04:41:45;;;;;;;8.00;7.60;;;1.20;99.90;;;;;;5013693;28;20705;-67
2023/03/15 04:44:15;;;;;;;8.33;7.87;;;1.20;99.90;;;;;;5013550;28;20200;-67
2023/03/15 04:46:43;;;;;;;8.27;7.40;;;1.20;99.90;;;;;;5014099;28;20184;-67
2023/03/15 04:49:09;;;;;;;8.43;7.93;;;1.20;99.90;;;;;;5013780;28;20178;-67
2023/03/15 04:51:35;;;;;;;8.47;7.97;;;1.20;99.90;;;;;;5014223;28;20208;-67
2023/03/15 04:54:01;;;;;;;7.93;7.53;;;1.20;99.90;;;;;;5013630;28;20165;-67
2023/03/15 04:56:27;;;;;;;7.57;7.27;;;1.20;99.90;;;;;;5014030;28;20185;-67
2023/03/15 04:58:53;;;;;;;8.17;7.77;;;1.20;99.90;;;;;;5013791;28;20202;-67
2023/03/15 05:01:26;;;;;;;8.43;8.03;;;1.30;99.90;;;;;;5013403;28;20219;-67
2023/03/15 05:03:52;;;;;;;7.23;6.90;;;1.30;99.90;;;;;;5013806;28;20195;-67
2023/03/15 05:06:18;;;;;;;7.70;7.33;;;1.30;99.90;;;;;;5013691;28;20675;-67
2023/03/15 05:08:44;;;;;;;8.30;7.80;;;1.30;99.90;;;;;;5013903;28;20180;-67
2023/03/15 05:11:09;;;;;;;7.50;7.10;;;1.40;99.90;;;;;;5012900;28;20623;-67
2023/03/15 05:13:35;;;;;;;8.27;7.77;;;1.40;99.90;;;;;;5013705;28;20594;-66
2023/03/15 05:16:01;;;;;;;8.03;7.53;;;1.40;99.90;;;;;;5013232;28;20212;-67
2023/03/15 05:18:27;;;;;;;7.77;7.37;;;1.40;99.90;;;;;;5013888;28;20516;-68
2023/03/15 05:20:54;;;;;;;7.83;7.43;;;1.40;99.90;;;;;;5013020;28;20296;-67
2023/03/15 05:23:22;;;;;;;7.80;7.40;;;1.40;99.90;;;;;;5013576;28;20267;-67
2023/03/15 05:25:52;;;;;;;8.53;8.03;;;1.40;99.90;;;;;;5013512;28;20168;-67
2023/03/15 05:28:19;;;;;;;9.33;8.73;;;1.40;99.90;;;;;;5013352;28;20242;-66
2023/03/15 05:30:44;;;;;;;8.07;7.63;;;1.40;99.90;;;;;;5013049;28;20223;-66
2023/03/15 05:33:10;;;;;;;7.80;7.40;;;1.40;99.90;;;;;;5013320;28;20184;-67
2023/03/15 05:35:36;;;;;;;7.90;7.43;;;1.40;99.90;;;;;;5013431;28;20176;-67
2023/03/15 05:38:02;;;;;;;8.33;7.77;;;1.40;99.90;;;;;;5012992;28;20661;-66
2023/03/15 05:40:31;;;;;;;7.87;7.47;;;1.40;99.90;;;;;;5012764;28;20172;-67
2023/03/15 05:42:58;;;;;;;7.60;7.30;;;1.40;99.90;;;;;;5008549;28;20726;-67
2023/03/15 05:45:23;;;;;;;9.27;8.47;;;1.40;99.90;;;;;;4999243;28;20203;-69
2023/03/15 05:47:49;;;;;;;8.50;8.10;;;1.40;99.90;;;;;;5012275;28;20676;-67
2023/03/15 05:50:15;;;;;;;8.10;7.57;;;1.50;99.90;;;;;;5012582;28;20172;-66
2023/03/15 05:52:41;;;;;;;8.10;7.60;;;1.50;99.90;;;;;;5012161;28;20246;-66
2023/03/15 05:55:07;;;;;;;9.43;8.63;;;1.50;99.90;;;;;;5011322;28;20180;-67
2023/03/15 05:57:33;;;;;;;8.40;7.90;;;1.50;99.90;;;;;;5011709;28;20542;-67
2023/03/15 05:59:58;;;;;;;9.47;8.80;;;1.60;99.90;;;;;;5012278;28;20180;-67
2023/03/15 06:02:24;;;;;;;9.37;8.87;;;1.60;99.90;;;;;;5012816;28;20547;-66
2023/03/15 06:04:49;;;;;;;8.47;7.97;;;1.60;99.90;;;;;;5012597;28;20595;-67
2023/03/15 06:07:15;;;;;;;8.37;7.87;;;1.70;99.90;;;;;;5012338;28;20230;-66
2023/03/15 06:09:41;;;;;;;8.33;7.93;;;1.70;99.90;;;;;;5012308;28;20724;-67
2023/03/15 06:12:06;;;;;;;10.13;8.47;;;1.80;99.90;;;;;;5012292;28;20215;-67
2023/03/15 06:14:32;;;;;;;9.13;8.43;;;1.80;99.90;;;;;;5012263;28;20184;-66
2023/03/15 06:16:57;;;;;;;8.77;8.13;;;1.80;99.90;;;;;;5012633;28;20559;-67
2023/03/15 06:19:23;;;;;;;9.33;8.73;;;1.90;99.90;;;;;;5012096;28;20175;-66
2023/03/15 06:21:50;;;;;;;9.27;8.67;;;1.90;99.90;;;;;;5012277;28;20215;-66
2023/03/15 06:24:16;;;;;;;9.50;8.90;;;1.90;99.90;;;;;;5012514;28;20187;-66
2023/03/15 06:26:41;;;;;;;9.90;9.10;;;2.00;99.90;;;;;;5010885;28;20267;-67
2023/03/15 06:29:07;;;;;;;11.57;10.57;;;2.00;99.90;;;;;;5012075;28;20187;-67
2023/03/15 06:31:33;;;;;;;9.93;9.33;;;2.10;99.90;;;;;;5012021;28;20208;-66
2023/03/15 06:33:58;;;;;;;9.83;9.03;;;2.10;99.90;;;;;;5012032;28;20191;-67
2023/03/15 06:36:24;;;;;;;11.20;10.33;;;2.10;99.90;;;;;;5012284;28;20172;-66
2023/03/15 06:38:52;;;;;;;16.47;10.73;;;2.10;99.90;;;;;;5012039;28;20610;-67
2023/03/15 06:41:18;;;;;;;10.40;9.70;;;2.20;99.90;;;;;;5011847;28;20196;-67
2023/03/15 06:43:44;;;;;;;22.87;17.03;;;2.20;99.90;;;;;;5010932;28;20199;-67
2023/03/15 06:46:10;;;;;;;11.37;10.27;;;2.20;99.90;;;;;;5012278;28;20183;-67
2023/03/15 06:48:35;;;;;;;12.40;9.23;;;2.30;99.90;;;;;;5011909;28;20187;-67
2023/03/15 06:51:02;;;;;;;10.80;9.90;;;2.30;99.90;;;;;;5011783;28;20207;-67
2023/03/15 06:53:28;;;;;;;10.60;9.70;;;2.30;99.90;;;;;;5010889;28;20180;-67
2023/03/15 06:55:53;;;;;;;12.30;11.10;;;2.40;99.90;;;;;;5012141;28;20195;-67
2023/03/15 06:58:19;;;;;;;10.70;9.70;;;2.50;99.90;;;;;;5011914;28;20175;-67
2023/03/15 07:00:47;;;;;;;13.13;10.53;;;2.60;99.90;;;;;;5011544;28;20257;-67
2023/03/15 07:03:12;;;;;;;10.13;9.23;;;2.70;99.90;;;;;;5008805;28;20184;-67
2023/03/15 07:05:38;;;;;;;12.60;11.33;;;2.80;99.90;;;;;;5011824;28;20172;-67
2023/03/15 07:08:04;;;;;;;10.27;9.40;;;2.70;99.90;;;;;;5013387;28;20188;-67
2023/03/15 07:10:29;;;;;;;12.23;11.13;;;2.60;99.90;;;;;;5011217;28;20207;-68
2023/03/15 07:12:55;;;;;;;10.27;9.33;;;2.60;99.90;;;;;;5010251;28;20191;-67
2023/03/15 07:15:21;;;;;;;10.60;9.73;;;2.50;99.90;;;;;;5011476;28;20168;-67
2023/03/15 07:17:46;;;;;;;10.27;9.43;;;2.50;99.90;;;;;;5010665;28;20633;-66
2023/03/15 07:20:12;;;;;;;9.10;8.27;;;2.50;99.90;;;;;;5011301;28;20234;-66
2023/03/15 07:22:38;;;;;;;10.13;9.10;;;2.50;99.90;;;;;;5011152;28;20203;-67
2023/03/15 07:25:06;;;;;;;10.80;9.67;;;2.60;99.90;;;;;;5010478;28;20176;-66
2023/03/15 07:27:32;;;;;;;9.33;8.70;;;2.60;99.90;;;;;;5011646;28;20180;-67
2023/03/15 07:29:58;;;;;;;12.43;10.87;;;2.60;99.90;;;;;;5011569;28;20178;-67
2023/03/15 07:32:23;;;;;;;10.63;9.70;;;2.70;99.90;;;;;;5010000;28;20299;-67
2023/03/15 07:34:49;;;;;;;12.67;11.47;;;2.80;99.90;;;;;;5009930;28;20634;-66
2023/03/15 07:37:16;;;;;;;12.30;9.07;;;2.80;99.90;;;;;;5012379;28;20180;-67
2023/03/15 07:39:41;;;;;;;10.73;9.70;;;2.90;99.90;;;;;;5011177;28;20568;-67
2023/03/15 07:42:07;;;;;;;9.53;8.83;;;2.80;99.90;;;;;;5011012;28;20204;-66
2023/03/15 07:44:33;;;;;;;12.73;11.47;;;2.80;99.90;;;;;;5011094;28;20512;-68
2023/03/15 07:46:58;;;;;;;10.40;9.47;;;2.80;99.90;;;;;;5011587;28;20223;-66
2023/03/15 07:49:24;;;;;;;11.37;10.17;;;2.90;99.90;;;;;;5011155;28;20219;-66
2023/03/15 07:51:50;;;;;;;12.23;10.93;;;3.00;99.90;;;;;;5011402;28;20757;-67
2023/03/15 07:54:15;;;;;;;11.53;10.43;;;3.10;99.90;;;;;;5011186;28;20204;-66
2023/03/15 07:56:41;;;;;;;12.17;11.30;;;3.20;99.90;;;;;;5010038;28;20251;-66
2023/03/15 07:59:07;;;;;;;11.87;10.83;;;3.40;99.90;;;;;;5010698;28;20184;-66
2023/03/15 08:01:32;;;;;;;13.93;12.70;;;3.40;99.90;;;;;;5010546;28;20222;-66
2023/03/15 08:03:58;;;;;;;12.73;11.50;;;3.40;99.90;;;;;;5011053;28;20180;-66
2023/03/15 08:06:23;;;;;;;13.17;12.07;;;3.50;99.90;;;;;;5010683;28;20538;-66
2023/03/15 08:08:50;;;;;;;13.53;12.20;;;3.60;99.90;;;;;;5011037;28;20220;-66
2023/03/15 08:11:15;;;;;;;13.17;11.97;;;3.70;99.90;;;;;;5035182;23;20191;-67
2023/03/15 08:13:41;;;;;;;11.67;10.53;;;3.80;99.90;;;;;;5030894;28;20191;-68
2023/03/15 08:16:07;;;;;;;12.40;11.33;;;3.90;99.90;;;;;;5034387;28;20873;-67
2023/03/15 08:18:32;;;;;;;11.90;10.97;;;3.90;99.90;;;;;;5034313;28;20528;-68
2023/03/15 08:20:58;;;;;;;16.50;11.87;;;3.90;99.90;;;;;;5034371;28;20187;-68
2023/03/15 08:23:25;;;;;;;11.47;10.47;;;4.00;99.90;;;;;;5034281;28;20176;-68
2023/03/15 08:25:50;;;;;;;11.80;10.70;;;4.10;99.90;;;;;;5034585;28;20203;-67
2023/03/15 08:28:16;;;;;;;11.50;9.07;;;4.20;99.90;;;;;;5034328;28;20277;-66
2023/03/15 08:30:42;;;;;;;10.00;9.10;;;4.20;99.90;;;;;;5034017;28;20203;-67
2023/03/15 08:33:08;;;;;;;9.60;8.70;;;4.20;99.90;;;;;;5034012;28;20206;-66
2023/03/15 08:35:34;;;;;;;9.83;8.90;;;4.30;99.90;;;;;;5034218;28;20546;-67
2023/03/15 08:38:01;;;;;;;8.50;7.80;;;4.40;99.90;;;;;;5034477;28;20171;-67
2023/03/15 08:40:28;;;;;;;9.37;8.67;;;4.40;99.90;;;;;;5032814;28;20180;-66
2023/03/15 08:42:55;;;;;;;9.27;8.57;;;4.50;99.90;;;;;;5033920;28;20192;-67
2023/03/15 08:45:22;;;;;;;20.77;8.03;;;4.70;99.90;;;;;;5033953;28;20651;-67
2023/03/15 08:47:48;;;;;;;8.43;7.73;;;4.80;99.90;;;;;;5034148;28;20592;-67
2023/03/15 08:50:15;;;;;;;9.00;8.40;;;4.90;99.90;;;;;;5033558;28;20179;-67
2023/03/15 08:52:42;;;;;;;9.80;7.10;;;5.00;99.90;;;;;;5033872;28;20197;-67
2023/03/15 08:55:08;;;;;;;7.67;7.13;;;5.10;99.90;;;;;;5033773;28;20250;-67
2023/03/15 08:57:34;;;;;;;8.80;8.17;;;5.20;99.90;;;;;;5033530;28;20175;-67
2023/03/15 09:00:06;;;;;;;11.83;7.20;;;5.20;99.90;;;;;;5033469;28;20254;-67
2023/03/15 09:02:31;;;;;;;8.43;7.20;;;5.20;99.90;;;;;;5033646;28;20245;-67
2023/03/15 09:04:57;;;;;;;7.20;6.63;;;5.20;99.90;;;;;;5033601;28;20171;-67
2023/03/15 09:07:22;;;;;;;7.77;7.17;;;5.20;99.90;;;;;;5033197;28;20588;-67
2023/03/15 09:09:48;;;;;;;7.37;6.67;;;5.30;99.90;;;;;;5033538;28;20222;-66
2023/03/15 09:12:15;;;;;;;7.90;7.10;;;5.50;99.90;;;;;;5033308;28;20214;-67
2023/03/15 09:14:41;;;;;;;7.73;7.07;;;5.60;99.90;;;;;;5033262;28;20591;-67
2023/03/15 09:17:07;;;;;;;8.80;6.93;;;5.80;99.90;;;;;;5033416;28;20167;-66
2023/03/15 09:19:33;;;;;;;6.73;6.30;;;5.90;99.90;;;;;;5033116;28;20183;-67
2023/03/15 09:21:58;;;;;;;8.13;7.53;;;5.80;99.90;;;;;;5033408;28;20553;-67
2023/03/15 09:24:24;;;;;;;7.60;7.10;;;5.60;99.90;;;;;;5033415;28;20183;-67
2023/03/15 09:26:49;;;;;;;8.17;7.57;;;5.50;99.90;;;;;;5031992;28;20211;-67
2023/03/15 09:29:15;;;;;;;8.07;7.40;;;5.50;99.90;;;;;;5033086;28;20522;-67
2023/03/15 09:31:41;;;;;;;7.60;6.80;;;5.50;99.90;;;;;;5033208;28;20411;-67
2023/03/15 09:34:06;;;;;;;6.40;6.03;;;5.80;99.90;;;;;;5033628;28;20171;-66
2023/03/15 09:36:33;;;;;;;9.20;8.47;;;6.30;99.90;;;;;;5032958;28;20163;-67
2023/03/15 09:39:00;;;;;;;7.33;6.73;;;7.00;99.90;;;;;;5033019;28;20171;-67
2023/03/15 09:41:40;;;;;;;11.57;7.37;;;7.90;99.90;;;;;;5031407;28;20211;-66
2023/03/15 09:44:33;;;;;;;6.20;5.70;;;9.20;99.90;;;;;;5032925;28;20254;-66
2023/03/15 09:47:07;;;;;;;6.03;5.53;;;10.10;99.90;;;;;;5012907;28;20582;-66
2023/03/15 09:49:45;;;;;;;6.30;5.10;;;10.60;99.90;;;;;;5012922;28;20263;-66
2023/03/15 09:52:37;;;;;;;6.33;5.93;;;10.60;99.90;;;;;;5012929;28;20688;-66
2023/03/15 09:55:11;;;;;;;5.27;4.73;;;10.80;99.90;;;;;;5017262;28;20176;-66
2023/03/15 09:57:49;;;;;;;4.30;4.10;;;11.10;99.90;;;;;;5032756;28;20179;-66
2023/03/15 10:00:20;;;;;;;5.10;4.70;;;11.60;99.90;;;;;;5027147;28;20191;-66
2023/03/15 10:03:00;;;;;;;4.57;4.27;;;12.40;99.90;;;;;;5028631;28;20536;-66
2023/03/15 10:05:36;;;;;;;4.90;4.50;;;12.00;99.90;;;;;;5026581;28;20591;-65
2023/03/15 10:08:02;;;;;;;6.80;5.33;;;11.40;99.90;;;;;;5028077;28;20576;-66
2023/03/15 10:10:35;;;;;;;6.03;5.43;;;10.80;99.90;;;;;;5027113;28;20298;-66
2023/03/15 10:13:18;;;;;;;4.93;4.53;;;10.80;99.90;;;;;;5028698;28;20218;-66
2023/03/15 10:15:59;;;;;;;5.20;4.80;;;11.00;99.90;;;;;;5028209;28;20175;-66
2023/03/15 10:18:30;;;;;;;5.13;4.73;;;11.30;99.90;;;;;;5028904;28;20176;-66
2023/03/15 10:21:10;;;;;;;5.63;5.03;;;11.40;99.90;;;;;;5025905;28;20647;-65
2023/03/15 10:23:51;;;;;;;5.27;4.77;;;11.40;99.90;;;;;;5028978;28;20202;-65
2023/03/15 10:26:23;;;;;;;4.80;4.40;;;11.80;99.90;;;;;;5027758;28;20191;-65
2023/03/15 10:28:50;;;;;;;5.00;4.53;;;12.60;99.90;;;;;;5028790;28;20192;-65
2023/03/15 10:31:30;;;;;;;4.93;4.53;;;13.50;99.90;;;;;;5027966;28;20206;-65
2023/03/15 10:33:56;;;;;;;4.93;4.50;;;14.00;99.90;;;;;;5028320;28;20171;-65
2023/03/15 10:36:23;;;;;;;7.27;4.23;;;14.50;99.90;;;;;;5027706;28;20199;-66
2023/03/15 10:38:49;;;;;;;4.77;4.37;;;14.90;99.90;;;;;;5027217;28;20576;-66
2023/03/15 10:41:49;;;;;;;7.50;4.87;;;15.10;99.90;;;;;;5027053;28;20290;-65
2023/03/15 10:44:23;;;;;;;4.50;4.20;;;14.70;99.90;;;;;;5004802;28;20195;-66
2023/03/15 10:47:01;;;;;;;5.57;5.07;;;14.60;99.90;;;;;;5028248;28;20605;-65
2023/03/15 10:49:35;;;;;;;5.17;4.87;;;14.90;99.90;;;;;;5028263;28;20184;-65
2023/03/15 10:52:01;;;;;;;4.40;4.10;;;14.90;99.90;;;;;;5027939;28;20586;-65
2023/03/15 10:54:26;;;;;;;4.23;3.90;;;15.00;99.90;;;;;;5027954;28;20172;-65
2023/03/15 10:56:58;;;;;;;4.47;4.07;;;15.10;99.90;;;;;;5028120;28;20187;-65
2023/03/15 10:59:26;;;;;;;4.83;4.53;;;15.40;99.90;;;;;;5027799;28;20191;-65
2023/03/15 11:02:06;;;;;;;4.70;4.40;;;15.60;99.90;;;;;;5028305;28;20295;-65
2023/03/15 11:04:32;;;;;;;4.60;4.23;;;15.70;99.90;;;;;;5027748;28;20187;-65
2023/03/15 11:07:02;;;;;;;5.53;4.77;;;16.00;99.90;;;;;;5026425;28;20732;-65
2023/03/15 11:09:41;;;;;;;4.80;4.00;;;16.20;99.90;;;;;;5027676;28;20189;-65
2023/03/15 11:12:14;;;;;;;4.27;3.97;;;16.10;99.90;;;;;;5027875;28;20242;-65
2023/03/15 11:14:43;;;;;;;4.67;4.00;;;15.60;99.90;;;;;;5027356;28;20167;-65
2023/03/15 11:17:24;;;;;;;5.73;4.03;;;15.10;99.90;;;;;;5034594;28;20187;-65
2023/03/15 11:20:15;;;;;;;4.30;3.90;;;15.00;99.90;;;;;;5023588;28;20179;-65
2023/03/15 11:22:41;;;;;;;4.30;4.00;;;14.80;99.90;;;;;;5008389;28;20277;-65
2023/03/15 11:25:15;;;;;;;4.50;4.10;;;14.10;99.90;;;;;;5020194;28;20187;-65
2023/03/15 11:27:42;;;;;;;4.50;4.20;;;13.00;99.90;;;;;;5027709;28;20660;-65
2023/03/15 11:30:20;;;;;;;4.47;4.23;;;12.10;99.90;;;;;;5026859;28;20572;-65
2023/03/15 11:32:46;;;;;;;4.47;4.17;;;11.50;99.90;;;;;;5025200;28;20206;-65
2023/03/15 11:35:16;;;;;;;5.10;4.77;;;10.90;99.90;;;;;;5027828;28;20179;-65
2023/03/15 11:38:03;;;;;;;5.33;3.97;;;10.70;99.90;;;;;;5027604;28;20190;-65
2023/03/15 11:40:43;;;;;;;4.40;4.10;;;10.60;99.90;;;;;;5027586;28;20172;-66
2023/03/15 11:44:00;;;;;;;4.40;4.10;;;11.40;99.90;;;;;;5027522;28;20199;-65
2023/03/15 11:46:58;;;;;;;4.67;4.27;;;12.20;99.90;;;;;;4994013;28;20187;-66
2023/03/15 11:49:39;;;;;;;4.37;4.07;;;13.10;99.90;;;;;;5022424;28;20195;-64
2023/03/15 11:52:05;;;;;;;3.97;3.77;;;13.50;99.90;;;;;;5031248;28;20638;-65
2023/03/15 11:54:31;;;;;;;5.17;4.67;;;13.20;99.90;;;;;;5031700;28;20182;-64
2023/03/15 11:57:06;;;;;;;4.70;4.40;;;13.10;99.90;;;;;;5031318;28;20175;-65
2023/03/15 11:59:39;;;;;;;5.33;4.20;;;13.20;99.90;;;;;;5031278;28;20179;-65
2023/03/15 12:02:13;;;;;;;4.43;4.03;;;13.30;99.90;;;;;;5031053;28;20199;-65
2023/03/15 12:04:49;;;;;;;3.93;3.63;;;13.80;99.90;;;;;;5031524;28;20927;-65
2023/03/15 12:07:36;;;;;;;4.27;3.97;;;14.40;99.90;;;;;;5029623;28;20931;-65
2023/03/15 12:10:02;;;;;;;4.67;4.00;;;14.10;99.90;;;;;;5031318;28;20171;-65
2023/03/15 12:12:27;;;;;;;3.90;3.60;;;14.20;99.90;;;;;;5031092;28;20234;-65
2023/03/15 12:15:17;;;;;;;3.70;3.50;;;14.20;99.90;;;;;;5030977;28;20648;-65
2023/03/15 12:17:58;;;;;;;4.70;3.60;;;14.10;99.90;;;;;;5031232;28;20175;-65
2023/03/15 12:20:41;;;;;;;4.50;3.60;;;13.80;99.90;;;;;;5031136;28;20648;-65
2023/03/15 12:23:16;;;;;;;4.57;4.27;;;13.90;99.90;;;;;;5031227;28;20291;-65
2023/03/15 12:25:55;;;;;;;4.17;3.87;;;14.50;99.90;;;;;;5031281;28;20268;-65
2023/03/15 12:28:51;;;;;;;3.20;3.00;;;15.40;99.50;;;;;;5031200;28;20203;-65
2023/03/15 12:31:17;;;;;;;3.80;3.60;;;16.20;99.90;;;;;;5030634;28;20250;-65
2023/03/15 12:33:57;;;;;;;4.97;3.87;;;16.70;99.90;;;;;;5030737;28;20171;-65
2023/03/15 12:36:35;;;;;;;3.67;3.37;;;17.00;99.40;;;;;;5030933;28;20207;-65
2023/03/15 12:39:21;;;;;;;3.50;3.30;;;16.90;98.30;;;;;;5030728;28;20571;-65
2023/03/15 12:41:50;;;;;;;3.87;3.67;;;16.70;98.60;;;;;;5031032;28;20208;-65
2023/03/15 12:44:31;;;;;;;3.80;3.60;;;16.40;98.40;;;;;;5030870;28;20229;-65
2023/03/15 12:47:01;;;;;;;3.63;3.43;;;16.60;99.90;;;;;;5030500;28;20660;-65
2023/03/15 12:49:32;;;;;;;3.90;3.70;;;16.50;96.10;;;;;;5030213;28;20206;-65
2023/03/15 12:52:14;;;;;;;4.93;3.80;;;16.20;93.60;;;;;;5030595;28;20214;-65
2023/03/15 12:54:54;;;;;;;5.77;4.00;;;16.10;96.20;;;;;;5030831;28;20183;-65
2023/03/15 12:57:35;;;;;;;3.60;3.30;;;16.20;94.80;;;;;;5030644;28;20175;-65
2023/03/15 13:00:06;;;;;;;3.57;3.30;;;16.50;96.80;;;;;;5029667;28;20172;-65
2023/03/15 13:02:43;;;;;;;6.30;3.73;;;16.40;93.80;;;;;;5030336;28;20392;-65